createdAt,value
2018-02-01T00:00:08.225Z,0
2018-02-01T00:01:09.986Z,0
2018-02-01T00:02:11.407Z,0
2018-02-01T00:03:12.873Z,0
2018-02-01T00:04:14.370Z,0
2018-02-01T00:05:16.209Z,0
2018-02-01T00:06:17.624Z,0
2018-02-01T00:07:19.056Z,0
2018-02-01T00:08:20.739Z,0
2018-02-01T00:09:22.161Z,0
2018-02-01T00:10:23.577Z,0
2018-02-01T00:11:25.028Z,0
2018-02-01T00:12:26.828Z,0
2018-02-01T00:13:28.396Z,0
2018-02-01T00:14:29.789Z,0
2018-02-01T00:15:31.391Z,0
2018-02-01T00:16:32.809Z,0
2018-02-01T00:17:34.508Z,0
2018-02-01T00:18:36.266Z,0
2018-02-01T00:19:37.704Z,0
2018-02-01T00:20:39.587Z,0
2018-02-01T00:21:41.293Z,0
2018-02-01T00:22:42.717Z,0
2018-02-01T00:23:44.219Z,0
2018-02-01T00:24:45.613Z,0
2018-02-01T00:25:46.995Z,0
2018-02-01T00:26:48.509Z,0
2018-02-01T00:27:49.922Z,0
2018-02-01T00:28:51.335Z,0
2018-02-01T00:29:53.164Z,0
2018-02-01T00:30:55.018Z,0
2018-02-01T00:31:56.412Z,0
2018-02-01T00:32:57.864Z,0
2018-02-01T00:33:59.487Z,0
2018-02-01T00:35:00.902Z,0
2018-02-01T00:36:02.747Z,0
2018-02-01T00:37:04.238Z,0
2018-02-01T00:38:05.655Z,0
2018-02-01T00:39:07.413Z,0
2018-02-01T00:40:09.436Z,0
2018-02-01T00:41:10.891Z,0
2018-02-01T00:42:12.618Z,0
2018-02-01T00:43:13.996Z,0
2018-02-01T00:44:15.573Z,0
2018-02-01T00:45:17.462Z,0
2018-02-01T00:46:18.940Z,0
2018-02-01T00:47:20.396Z,0
2018-02-01T00:48:22.263Z,0
2018-02-01T00:49:23.752Z,0
2018-02-01T00:50:25.456Z,0
2018-02-01T00:51:26.854Z,0
2018-02-01T00:52:28.431Z,0
2018-02-01T00:53:29.853Z,0
2018-02-01T00:54:31.334Z,0
2018-02-01T00:55:32.836Z,0
2018-02-01T00:56:34.739Z,0
2018-02-01T00:57:36.349Z,0
2018-02-01T00:58:37.810Z,0
2018-02-01T00:59:39.201Z,0
2018-02-01T01:00:40.682Z,0
2018-02-01T01:01:42.305Z,0
2018-02-01T01:02:43.772Z,0
2018-02-01T01:03:45.223Z,0
2018-02-01T01:04:46.658Z,0
2018-02-01T01:05:48.105Z,0
2018-02-01T01:06:49.770Z,0
2018-02-01T01:07:51.342Z,0
2018-02-01T01:08:52.942Z,0
2018-02-01T01:09:54.352Z,0
2018-02-01T01:10:55.795Z,0
2018-02-01T01:11:57.202Z,0
2018-02-01T01:12:58.785Z,0
2018-02-01T01:14:00.200Z,0
2018-02-01T01:15:01.873Z,0
2018-02-01T01:16:03.414Z,0
2018-02-01T01:17:05.300Z,0
2018-02-01T01:18:06.894Z,0
2018-02-01T01:19:08.329Z,0
2018-02-01T01:20:10.023Z,0
2018-02-01T01:21:11.508Z,0
2018-02-01T01:22:12.993Z,0
2018-02-01T01:23:14.470Z,0
2018-02-01T01:24:16.069Z,0
2018-02-01T01:25:17.564Z,0
2018-02-01T01:26:19.224Z,0
2018-02-01T01:27:20.614Z,0
2018-02-01T01:28:22.274Z,0
2018-02-01T01:29:23.682Z,0
2018-02-01T01:30:25.071Z,0
2018-02-01T01:31:26.508Z,0
2018-02-01T01:32:28.022Z,0
2018-02-01T01:33:29.476Z,0
2018-02-01T01:34:31.019Z,0
2018-02-01T01:35:32.407Z,0
2018-02-01T01:36:33.794Z,0
2018-02-01T01:37:35.300Z,0
2018-02-01T01:38:36.728Z,0
2018-02-01T01:39:38.206Z,0
2018-02-01T01:40:39.862Z,0
2018-02-01T01:41:41.314Z,0
2018-02-01T01:42:42.768Z,0
2018-02-01T01:43:44.412Z,0
2018-02-01T01:44:46.220Z,0
2018-02-01T01:45:47.787Z,0
2018-02-01T01:46:49.334Z,0
2018-02-01T01:47:51.068Z,0
2018-02-01T01:48:52.464Z,0
2018-02-01T01:49:54.117Z,0
2018-02-01T01:50:55.538Z,0
2018-02-01T01:51:57.153Z,0
2018-02-01T01:52:58.808Z,0
2018-02-01T01:54:01.066Z,0
2018-02-01T01:55:03.519Z,0
2018-02-01T01:56:05.063Z,0
2018-02-01T01:57:06.591Z,0
2018-02-01T01:58:08.150Z,0
2018-02-01T01:59:09.708Z,0
2018-02-01T02:00:11.206Z,0
2018-02-01T02:01:12.666Z,0
2018-02-01T02:02:14.030Z,0
2018-02-01T02:03:15.671Z,0
2018-02-01T02:04:17.093Z,0
2018-02-01T02:05:18.623Z,0
2018-02-01T02:06:20.078Z,0
2018-02-01T02:07:21.716Z,0
2018-02-01T02:08:23.250Z,0
2018-02-01T02:09:24.696Z,0
2018-02-01T02:10:26.092Z,0
2018-02-01T02:11:27.530Z,0
2018-02-01T02:12:28.902Z,0
2018-02-01T02:13:30.276Z,0
2018-02-01T02:14:31.661Z,0
2018-02-01T02:15:33.159Z,0
2018-02-01T02:16:34.561Z,0
2018-02-01T02:17:36.025Z,0
2018-02-01T02:18:37.636Z,0
2018-02-01T02:19:39.024Z,0
2018-02-01T02:20:40.531Z,0
2018-02-01T02:21:41.953Z,0
2018-02-01T02:22:43.366Z,0
2018-02-01T02:23:44.784Z,0
2018-02-01T02:24:46.229Z,0
2018-02-01T02:25:48.012Z,0
2018-02-01T02:26:50.721Z,0
2018-02-01T02:27:52.101Z,0
2018-02-01T02:28:53.716Z,0
2018-02-01T02:29:55.144Z,0
2018-02-01T02:30:56.632Z,0
2018-02-01T02:31:58.103Z,0
2018-02-01T02:32:59.551Z,0
2018-02-01T02:34:00.939Z,0
2018-02-01T02:35:02.371Z,0
2018-02-01T02:36:03.779Z,0
2018-02-01T02:37:05.181Z,0
2018-02-01T02:38:06.601Z,0
2018-02-01T02:39:08.091Z,0
2018-02-01T02:40:09.617Z,0
2018-02-01T02:41:11.323Z,0
2018-02-01T02:42:12.808Z,0
2018-02-01T02:43:14.448Z,0
2018-02-01T02:44:16.084Z,0
2018-02-01T02:45:17.795Z,0
2018-02-01T02:46:19.268Z,0
2018-02-01T02:47:20.973Z,0
2018-02-01T02:48:22.431Z,0
2018-02-01T02:49:24.027Z,0
2018-02-01T02:50:25.498Z,0
2018-02-01T02:51:26.941Z,0
2018-02-01T02:52:28.376Z,0
2018-02-01T02:53:30.058Z,0
2018-02-01T02:54:31.472Z,0
2018-02-01T02:55:33.054Z,0
2018-02-01T02:56:34.500Z,0
2018-02-01T02:57:35.937Z,0
2018-02-01T02:58:37.486Z,0
2018-02-01T02:59:38.853Z,0
2018-02-01T03:00:40.452Z,0
2018-02-01T03:01:41.852Z,0
2018-02-01T03:02:43.238Z,0
2018-02-01T03:03:44.644Z,0
2018-02-01T03:04:46.209Z,0
2018-02-01T03:05:47.578Z,0
2018-02-01T03:06:49.040Z,0
2018-02-01T03:07:50.716Z,0
2018-02-01T03:08:52.146Z,0
2018-02-01T03:09:53.627Z,0
2018-02-01T03:10:55.125Z,0
2018-02-01T03:11:56.631Z,0
2018-02-01T03:12:58.038Z,0
2018-02-01T03:13:59.455Z,0
2018-02-01T03:15:00.938Z,0
2018-02-01T03:16:02.359Z,0
2018-02-01T03:17:03.744Z,0
2018-02-01T03:18:05.155Z,0
2018-02-01T03:19:06.620Z,0
2018-02-01T03:20:08.007Z,0
2018-02-01T03:21:09.446Z,0
2018-02-01T03:22:10.934Z,0
2018-02-01T03:23:12.310Z,0
2018-02-01T03:24:13.774Z,0
2018-02-01T03:25:15.201Z,0
2018-02-01T03:26:16.733Z,0
2018-02-01T03:27:18.182Z,0
2018-02-01T03:28:19.595Z,0
2018-02-01T03:29:21.043Z,0
2018-02-01T03:30:22.476Z,0
2018-02-01T03:31:23.946Z,0
2018-02-01T03:32:25.376Z,0
2018-02-01T03:33:26.819Z,0
2018-02-01T03:34:28.264Z,0
2018-02-01T03:35:29.648Z,0
2018-02-01T03:36:31.086Z,0
2018-02-01T03:37:32.500Z,0
2018-02-01T03:38:33.934Z,0
2018-02-01T03:39:35.377Z,0
2018-02-01T03:40:36.978Z,0
2018-02-01T03:41:38.394Z,0
2018-02-01T03:42:39.885Z,0
2018-02-01T03:43:41.364Z,0
2018-02-01T03:44:42.852Z,0
2018-02-01T03:45:44.309Z,0
2018-02-01T03:46:45.778Z,0
2018-02-01T03:47:47.147Z,0
2018-02-01T03:48:48.529Z,0
2018-02-01T03:49:49.949Z,0
2018-02-01T03:50:51.415Z,0
2018-02-01T03:51:52.812Z,0
2018-02-01T03:52:54.255Z,0
2018-02-01T03:53:55.722Z,0
2018-02-01T03:54:57.139Z,0
2018-02-01T03:55:58.535Z,0
2018-02-01T03:56:59.982Z,0
2018-02-01T03:58:01.414Z,0
2018-02-01T03:59:02.863Z,0
2018-02-01T04:00:04.308Z,0
2018-02-01T04:01:05.762Z,0
2018-02-01T04:02:07.127Z,0
2018-02-01T04:03:08.511Z,0
2018-02-01T04:04:09.969Z,0
2018-02-01T04:05:11.363Z,0
2018-02-01T04:06:12.785Z,0
2018-02-01T04:07:14.202Z,0
2018-02-01T04:08:15.676Z,0
2018-02-01T04:09:17.140Z,0
2018-02-01T04:10:18.592Z,0
2018-02-01T04:11:20.043Z,0
2018-02-01T04:12:21.483Z,0
2018-02-01T04:13:22.956Z,0
2018-02-01T04:14:24.336Z,0
2018-02-01T04:15:25.775Z,0
2018-02-01T04:16:27.147Z,0
2018-02-01T04:17:28.518Z,0
2018-02-01T04:18:29.982Z,0
2018-02-01T04:19:31.371Z,0
2018-02-01T04:20:32.815Z,0
2018-02-01T04:21:34.291Z,0
2018-02-01T04:22:35.743Z,0
2018-02-01T04:23:37.136Z,0
2018-02-01T04:24:38.533Z,0
2018-02-01T04:25:39.972Z,0
2018-02-01T04:26:41.518Z,0
2018-02-01T04:27:42.951Z,0
2018-02-01T04:28:44.412Z,0
2018-02-01T04:29:45.841Z,0
2018-02-01T04:30:47.374Z,0
2018-02-01T04:31:48.856Z,0
2018-02-01T04:32:50.272Z,0
2018-02-01T04:33:51.725Z,0
2018-02-01T04:34:53.237Z,0
2018-02-01T04:35:54.815Z,0
2018-02-01T04:36:56.375Z,0
2018-02-01T04:37:57.749Z,0
2018-02-01T04:38:59.186Z,0
2018-02-01T04:40:00.561Z,0
2018-02-01T04:41:02.023Z,0
2018-02-01T04:42:03.410Z,0
2018-02-01T04:43:05.130Z,0
2018-02-01T04:44:06.595Z,0
2018-02-01T04:45:08.307Z,0
2018-02-01T04:46:09.707Z,0
2018-02-01T04:47:11.273Z,0
2018-02-01T04:48:12.647Z,0
2018-02-01T04:49:14.071Z,0
2018-02-01T04:50:15.480Z,0
2018-02-01T04:51:16.872Z,0
2018-02-01T04:52:18.255Z,0
2018-02-01T04:53:19.674Z,0
2018-02-01T04:54:21.109Z,0
2018-02-01T04:55:22.604Z,0
2018-02-01T04:56:24.126Z,0
2018-02-01T04:57:25.491Z,0
2018-02-01T04:58:26.910Z,0
2018-02-01T04:59:28.676Z,0
2018-02-01T05:00:30.113Z,0
2018-02-01T05:01:31.804Z,0
2018-02-01T05:02:33.248Z,0
2018-02-01T05:03:34.804Z,0
2018-02-01T05:04:36.292Z,0
2018-02-01T05:05:37.676Z,0
2018-02-01T05:06:39.142Z,0
2018-02-01T05:07:40.886Z,0
2018-02-01T05:08:42.911Z,0
2018-02-01T05:09:44.383Z,0
2018-02-01T05:10:45.919Z,0
2018-02-01T05:11:47.334Z,0
2018-02-01T05:12:48.740Z,0
2018-02-01T05:13:50.107Z,0
2018-02-01T05:14:51.610Z,0
2018-02-01T05:15:53.023Z,0
2018-02-01T05:16:54.401Z,0
2018-02-01T05:17:56.233Z,0
2018-02-01T05:18:57.611Z,0
2018-02-01T05:19:59.198Z,0
2018-02-01T05:21:00.670Z,0
2018-02-01T05:22:02.155Z,0
2018-02-01T05:23:03.541Z,0
2018-02-01T05:24:04.984Z,0
2018-02-01T05:25:06.753Z,0
2018-02-01T05:26:08.476Z,0
2018-02-01T05:27:10.001Z,0
2018-02-01T05:28:11.456Z,0
2018-02-01T05:29:13.246Z,0
2018-02-01T05:30:14.992Z,0
2018-02-01T05:31:16.501Z,0
2018-02-01T05:32:17.964Z,0
2018-02-01T05:33:19.696Z,0
2018-02-01T05:34:21.394Z,0
2018-02-01T05:35:23.173Z,0
2018-02-01T05:36:24.565Z,0
2018-02-01T05:37:25.968Z,0
2018-02-01T05:38:27.504Z,0
2018-02-01T05:39:28.876Z,0
2018-02-01T05:40:30.266Z,0
2018-02-01T05:41:31.897Z,0
2018-02-01T05:42:33.512Z,0
2018-02-01T05:43:35.641Z,0
2018-02-01T05:44:37.158Z,0
2018-02-01T05:45:38.645Z,0
2018-02-01T05:46:40.016Z,0
2018-02-01T05:47:41.436Z,0
2018-02-01T05:48:42.835Z,0
2018-02-01T05:49:44.226Z,0
2018-02-01T05:50:45.610Z,0
2018-02-01T05:51:47.241Z,0
2018-02-01T05:52:48.945Z,0
2018-02-01T05:53:50.347Z,0
2018-02-01T05:54:51.813Z,0
2018-02-01T05:55:53.325Z,0
2018-02-01T05:56:55.032Z,0
2018-02-01T05:57:56.470Z,0
2018-02-01T05:58:58.012Z,0
2018-02-01T05:59:59.720Z,0
2018-02-01T06:01:01.484Z,0
2018-02-01T06:02:02.938Z,0
2018-02-01T06:03:04.458Z,0
2018-02-01T06:04:06.131Z,0
2018-02-01T06:05:07.647Z,0
2018-02-01T06:06:09.566Z,0
2018-02-01T06:07:11.327Z,0
2018-02-01T06:08:13.042Z,0
2018-02-01T06:09:14.968Z,0
2018-02-01T06:10:16.465Z,0
2018-02-01T06:11:17.891Z,0
2018-02-01T06:12:19.643Z,0
2018-02-01T06:13:21.125Z,0
2018-02-01T06:14:22.808Z,0
2018-02-01T06:15:24.214Z,0
2018-02-01T06:16:25.687Z,0
2018-02-01T06:17:27.051Z,0
2018-02-01T06:18:28.595Z,0
2018-02-01T06:19:29.992Z,0
2018-02-01T06:20:31.456Z,0
2018-02-01T06:21:32.842Z,0
2018-02-01T06:22:34.561Z,0
2018-02-01T06:23:35.981Z,0
2018-02-01T06:24:37.379Z,0
2018-02-01T06:25:38.827Z,0
2018-02-01T06:26:40.851Z,0
2018-02-01T06:27:42.511Z,0
2018-02-01T06:28:43.984Z,0
2018-02-01T06:29:45.497Z,0
2018-02-01T06:30:46.901Z,0
2018-02-01T06:31:48.292Z,0
2018-02-01T06:32:49.704Z,0
2018-02-01T06:33:51.120Z,0
2018-02-01T06:34:52.494Z,4
2018-02-01T06:35:53.859Z,4
2018-02-01T06:36:55.302Z,0
2018-02-01T06:37:56.744Z,4
2018-02-01T06:38:58.214Z,4
2018-02-01T06:39:59.604Z,4
2018-02-01T06:41:01.225Z,8
2018-02-01T06:42:02.613Z,4
2018-02-01T06:43:04.220Z,8
2018-02-01T06:44:05.625Z,8
2018-02-01T06:45:07.138Z,8
2018-02-01T06:46:08.534Z,12
2018-02-01T06:47:10.024Z,16
2018-02-01T06:48:11.426Z,16
2018-02-01T06:49:12.827Z,20
2018-02-01T06:50:14.294Z,24
2018-02-01T06:51:15.827Z,32
2018-02-01T06:52:17.472Z,36
2018-02-01T06:53:19.023Z,40
2018-02-01T06:54:20.623Z,48
2018-02-01T06:55:22.373Z,52
2018-02-01T06:56:23.727Z,60
2018-02-01T06:57:25.116Z,68
2018-02-01T06:58:26.823Z,80
2018-02-01T06:59:28.227Z,84
2018-02-01T07:00:29.647Z,100
2018-02-01T07:01:31.035Z,108
2018-02-01T07:02:32.612Z,120
2018-02-01T07:03:34.639Z,140
2018-02-01T07:04:36.277Z,152
2018-02-01T07:05:37.857Z,164
2018-02-01T07:06:39.274Z,180
2018-02-01T07:07:40.720Z,204
2018-02-01T07:08:42.133Z,220
2018-02-01T07:09:43.509Z,240
2018-02-01T07:10:45.130Z,260
2018-02-01T07:11:46.598Z,280
2018-02-01T07:12:48.206Z,300
2018-02-01T07:13:49.697Z,324
2018-02-01T07:14:51.126Z,348
2018-02-01T07:15:52.517Z,380
2018-02-01T07:16:53.922Z,416
2018-02-01T07:17:55.348Z,444
2018-02-01T07:18:56.801Z,504
2018-02-01T07:19:58.192Z,520
2018-02-01T07:20:59.581Z,536
2018-02-01T07:22:01.295Z,572
2018-02-01T07:23:02.686Z,604
2018-02-01T07:24:04.093Z,636
2018-02-01T07:25:05.745Z,672
2018-02-01T07:26:07.153Z,708
2018-02-01T07:27:08.492Z,744
2018-02-01T07:28:09.865Z,780
2018-02-01T07:29:11.293Z,812
2018-02-01T07:30:12.920Z,848
2018-02-01T07:31:14.400Z,892
2018-02-01T07:32:15.972Z,928
2018-02-01T07:33:17.312Z,976
2018-02-01T07:34:18.688Z,1072
2018-02-01T07:35:20.110Z,1160
2018-02-01T07:36:21.578Z,1244
2018-02-01T07:37:22.988Z,1360
2018-02-01T07:38:24.424Z,1444
2018-02-01T07:39:25.840Z,1476
2018-02-01T07:40:27.231Z,1644
2018-02-01T07:41:28.816Z,1644
2018-02-01T07:42:31.075Z,1648
2018-02-01T07:43:32.833Z,1616
2018-02-01T07:44:34.182Z,1624
2018-02-01T07:45:35.578Z,1604
2018-02-01T07:46:37.004Z,1732
2018-02-01T07:47:38.405Z,1920
2018-02-01T07:48:39.815Z,2028
2018-02-01T07:49:41.397Z,2216
2018-02-01T07:50:42.818Z,2336
2018-02-01T07:51:44.255Z,2428
2018-02-01T07:52:45.665Z,2316
2018-02-01T07:53:47.211Z,2340
2018-02-01T07:54:48.870Z,2520
2018-02-01T07:55:50.547Z,2356
2018-02-01T07:56:52.704Z,2144
2018-02-01T07:57:54.394Z,2172
2018-02-01T07:58:56.532Z,1936
2018-02-01T07:59:58.335Z,2100
2018-02-01T08:00:59.876Z,1964
2018-02-01T08:02:01.599Z,2040
2018-02-01T08:03:02.987Z,2360
2018-02-01T08:04:04.375Z,2720
2018-02-01T08:05:05.832Z,2900
2018-02-01T08:06:07.319Z,2636
2018-02-01T08:07:08.865Z,3408
2018-02-01T08:08:10.295Z,3504
2018-02-01T08:09:11.860Z,3228
2018-02-01T08:10:13.343Z,2940
2018-02-01T08:11:14.960Z,3284
2018-02-01T08:12:16.384Z,2804
2018-02-01T08:13:17.766Z,4184
2018-02-01T08:14:19.160Z,4804
2018-02-01T08:15:20.549Z,4880
2018-02-01T08:16:22.313Z,4924
2018-02-01T08:17:23.802Z,4380
2018-02-01T08:18:25.510Z,3416
2018-02-01T08:19:27.376Z,3224
2018-02-01T08:20:29.119Z,4112
2018-02-01T08:21:30.514Z,3424
2018-02-01T08:22:31.951Z,3396
2018-02-01T08:23:33.361Z,4544
2018-02-01T08:24:34.764Z,4316
2018-02-01T08:25:36.253Z,3160
2018-02-01T08:26:37.664Z,3880
2018-02-01T08:27:39.091Z,4856
2018-02-01T08:28:40.525Z,6220
2018-02-01T08:29:41.933Z,6976
2018-02-01T08:30:43.352Z,7764
2018-02-01T08:31:44.872Z,8544
2018-02-01T08:32:46.300Z,7824
2018-02-01T08:33:47.719Z,6356
2018-02-01T08:34:49.222Z,8248
2018-02-01T08:35:50.630Z,7240
2018-02-01T08:36:52.037Z,7348
2018-02-01T08:37:53.473Z,6088
2018-02-01T08:38:54.908Z,7992
2018-02-01T08:39:56.347Z,8252
2018-02-01T08:40:57.765Z,7652
2018-02-01T08:41:59.166Z,8312
2018-02-01T08:43:00.614Z,8460
2018-02-01T08:44:02.008Z,8312
2018-02-01T08:45:03.466Z,8380
2018-02-01T08:46:04.967Z,8708
2018-02-01T08:47:06.348Z,8892
2018-02-01T08:48:07.732Z,9192
2018-02-01T08:49:09.138Z,9276
2018-02-01T08:50:10.558Z,9524
2018-02-01T08:51:11.963Z,9276
2018-02-01T08:52:13.426Z,8936
2018-02-01T08:53:14.798Z,9192
2018-02-01T08:54:16.244Z,9172
2018-02-01T08:55:17.755Z,9348
2018-02-01T08:56:19.215Z,9532
2018-02-01T08:57:20.632Z,9520
2018-02-01T08:58:22.087Z,9792
2018-02-01T08:59:23.616Z,9824
2018-02-01T09:00:25.019Z,9888
2018-02-01T09:01:26.470Z,9844
2018-02-01T09:02:27.908Z,9888
2018-02-01T09:03:29.336Z,9824
2018-02-01T09:04:30.795Z,9908
2018-02-01T09:05:32.198Z,10168
2018-02-01T09:06:33.605Z,10208
2018-02-01T09:07:35.070Z,10676
2018-02-01T09:08:36.483Z,10492
2018-02-01T09:09:37.870Z,10440
2018-02-01T09:10:39.248Z,10456
2018-02-01T09:11:40.720Z,10580
2018-02-01T09:12:42.130Z,10576
2018-02-01T09:13:43.513Z,10648
2018-02-01T09:14:44.945Z,10632
2018-02-01T09:15:46.449Z,10640
2018-02-01T09:16:47.893Z,10832
2018-02-01T09:17:49.265Z,10904
2018-02-01T09:18:50.808Z,11000
2018-02-01T09:19:52.180Z,10960
2018-02-01T09:20:53.613Z,10964
2018-02-01T09:21:55.025Z,11084
2018-02-01T09:22:56.470Z,11176
2018-02-01T09:23:57.856Z,11268
2018-02-01T09:24:59.259Z,11224
2018-02-01T09:26:00.743Z,11304
2018-02-01T09:27:02.156Z,11472
2018-02-01T09:28:03.580Z,11500
2018-02-01T09:29:05.017Z,11544
2018-02-01T09:30:06.469Z,11448
2018-02-01T09:31:08.036Z,11564
2018-02-01T09:32:09.474Z,11584
2018-02-01T09:33:10.944Z,12056
2018-02-01T09:34:12.374Z,13568
2018-02-01T09:35:13.787Z,16352
2018-02-01T09:36:15.222Z,15936
2018-02-01T09:37:16.716Z,16160
2018-02-01T09:38:18.155Z,16000
2018-02-01T09:39:19.607Z,16096
2018-02-01T09:40:21.135Z,17472
2018-02-01T09:41:22.546Z,18912
2018-02-01T09:42:23.933Z,19008
2018-02-01T09:43:25.338Z,19264
2018-02-01T09:44:26.763Z,18272
2018-02-01T09:45:28.173Z,18496
2018-02-01T09:46:29.701Z,18944
2018-02-01T09:47:31.258Z,18496
2018-02-01T09:48:32.587Z,16224
2018-02-01T09:49:34.042Z,21664
2018-02-01T09:50:35.500Z,23104
2018-02-01T09:51:36.897Z,22752
2018-02-01T09:52:38.308Z,21056
2018-02-01T09:53:39.747Z,20448
2018-02-01T09:54:41.237Z,19680
2018-02-01T09:55:42.637Z,18112
2018-02-01T09:56:44.099Z,13548
2018-02-01T09:57:45.511Z,9820
2018-02-01T09:58:47.030Z,9716
2018-02-01T09:59:48.457Z,8928
2018-02-01T10:00:49.889Z,7180
2018-02-01T10:01:51.455Z,6888
2018-02-01T10:02:52.854Z,7668
2018-02-01T10:03:54.299Z,6204
2018-02-01T10:04:55.700Z,3460
2018-02-01T10:05:57.143Z,3308
2018-02-01T10:06:58.539Z,4224
2018-02-01T10:07:59.963Z,4564
2018-02-01T10:09:01.606Z,5488
2018-02-01T10:10:02.963Z,7900
2018-02-01T10:11:04.408Z,8160
2018-02-01T10:12:05.863Z,6008
2018-02-01T10:13:07.281Z,4700
2018-02-01T10:14:08.677Z,3848
2018-02-01T10:15:10.074Z,3576
2018-02-01T10:16:11.493Z,3748
2018-02-01T10:17:13.012Z,6104
2018-02-01T10:18:14.458Z,6964
2018-02-01T10:19:15.883Z,7672
2018-02-01T10:20:17.311Z,7952
2018-02-01T10:21:18.697Z,8884
2018-02-01T10:22:20.181Z,9320
2018-02-01T10:23:21.610Z,8892
2018-02-01T10:24:23.004Z,11036
2018-02-01T10:25:24.395Z,11188
2018-02-01T10:26:25.852Z,10208
2018-02-01T10:27:27.232Z,9968
2018-02-01T10:28:28.677Z,10192
2018-02-01T10:29:30.110Z,16992
2018-02-01T10:30:31.550Z,11128
2018-02-01T10:31:32.924Z,11320
2018-02-01T10:32:34.318Z,10056
2018-02-01T10:33:35.703Z,15520
2018-02-01T10:34:37.216Z,21408
2018-02-01T10:35:38.598Z,23104
2018-02-01T10:36:40.052Z,21984
2018-02-01T10:37:41.475Z,19008
2018-02-01T10:38:42.921Z,18080
2018-02-01T10:39:44.355Z,14100
2018-02-01T10:40:45.782Z,12240
2018-02-01T10:41:47.190Z,11980
2018-02-01T10:42:48.610Z,9256
2018-02-01T10:43:50.054Z,8028
2018-02-01T10:44:51.470Z,8364
2018-02-01T10:45:52.876Z,9004
2018-02-01T10:46:54.286Z,8080
2018-02-01T10:47:55.715Z,6408
2018-02-01T10:48:57.115Z,5372
2018-02-01T10:49:58.502Z,5176
2018-02-01T10:50:59.922Z,5360
2018-02-01T10:52:01.447Z,6364
2018-02-01T10:53:02.869Z,6428
2018-02-01T10:54:04.294Z,5660
2018-02-01T10:55:05.829Z,5472
2018-02-01T10:56:07.243Z,6104
2018-02-01T10:57:08.651Z,6012
2018-02-01T10:58:10.080Z,5968
2018-02-01T10:59:11.547Z,7104
2018-02-01T11:00:13.013Z,8152
2018-02-01T11:01:14.388Z,7496
2018-02-01T11:02:15.816Z,9216
2018-02-01T11:03:17.223Z,9712
2018-02-01T11:04:18.669Z,9560
2018-02-01T11:05:20.103Z,9788
2018-02-01T11:06:21.471Z,9932
2018-02-01T11:07:22.845Z,9252
2018-02-01T11:08:24.241Z,9316
2018-02-01T11:09:25.637Z,9680
2018-02-01T11:10:27.072Z,9940
2018-02-01T11:11:28.508Z,10532
2018-02-01T11:12:29.920Z,11352
2018-02-01T11:13:31.409Z,11428
2018-02-01T11:14:32.861Z,11520
2018-02-01T11:15:34.280Z,11760
2018-02-01T11:16:35.699Z,12412
2018-02-01T11:17:37.208Z,12476
2018-02-01T11:18:38.594Z,12024
2018-02-01T11:19:40.060Z,11800
2018-02-01T11:20:41.534Z,11748
2018-02-01T11:21:42.993Z,11172
2018-02-01T11:22:44.423Z,12068
2018-02-01T11:23:45.975Z,12508
2018-02-01T11:24:47.371Z,11984
2018-02-01T11:25:48.791Z,12072
2018-02-01T11:26:50.251Z,11752
2018-02-01T11:27:51.709Z,10676
2018-02-01T11:28:53.175Z,10312
2018-02-01T11:29:54.635Z,10116
2018-02-01T11:30:56.119Z,9844
2018-02-01T11:31:57.548Z,10080
2018-02-01T11:32:58.971Z,9548
2018-02-01T11:34:00.419Z,9552
2018-02-01T11:35:01.912Z,9984
2018-02-01T11:36:03.310Z,10424
2018-02-01T11:37:04.757Z,11016
2018-02-01T11:38:06.239Z,11856
2018-02-01T11:39:07.700Z,12356
2018-02-01T11:40:09.153Z,11716
2018-02-01T11:41:10.603Z,11024
2018-02-01T11:42:12.042Z,11816
2018-02-01T11:43:13.534Z,12336
2018-02-01T11:44:15.344Z,12772
2018-02-01T11:45:16.778Z,12628
2018-02-01T11:46:18.233Z,12196
2018-02-01T11:47:19.747Z,12468
2018-02-01T11:48:21.210Z,12816
2018-02-01T11:49:22.658Z,12696
2018-02-01T11:50:24.038Z,12488
2018-02-01T11:51:29.265Z,14264
2018-02-01T11:52:30.731Z,15616
2018-02-01T11:53:32.170Z,14964
2018-02-01T11:54:33.681Z,13496
2018-02-01T11:55:35.260Z,13712
2018-02-01T11:56:36.805Z,13808
2018-02-01T11:57:38.255Z,12836
2018-02-01T11:58:39.707Z,11600
2018-02-01T11:59:41.256Z,9620
2018-02-01T12:00:42.702Z,7336
2018-02-01T12:01:44.208Z,5804
2018-02-01T12:02:45.842Z,6488
2018-02-01T12:03:47.228Z,5496
2018-02-01T12:04:48.803Z,5688
2018-02-01T12:05:50.413Z,6608
2018-02-01T12:06:51.941Z,7576
2018-02-01T12:07:53.456Z,6804
2018-02-01T12:08:54.882Z,7084
2018-02-01T12:09:56.333Z,9620
2018-02-01T12:10:57.750Z,10588
2018-02-01T12:11:59.261Z,8644
2018-02-01T12:13:00.797Z,8544
2018-02-01T12:14:02.167Z,7472
2018-02-01T12:15:03.571Z,9628
2018-02-01T12:16:04.990Z,9284
2018-02-01T12:17:06.881Z,8260
2018-02-01T12:18:08.404Z,6416
2018-02-01T12:19:09.937Z,4940
2018-02-01T12:20:11.540Z,3900
2018-02-01T12:21:12.976Z,2864
2018-02-01T12:22:14.424Z,2548
2018-02-01T12:23:16.602Z,2004
2018-02-01T12:24:18.168Z,2120
2018-02-01T12:25:19.554Z,2488
2018-02-01T12:26:21.054Z,4872
2018-02-01T12:27:22.677Z,6272
2018-02-01T12:28:24.120Z,7904
2018-02-01T12:29:26.309Z,9540
2018-02-01T12:30:27.939Z,10908
2018-02-01T12:31:29.422Z,8388
2018-02-01T12:32:33.669Z,6744
2018-02-01T12:33:35.298Z,7564
2018-02-01T12:34:36.878Z,8292
2018-02-01T12:35:38.299Z,9392
2018-02-01T12:36:39.752Z,9424
2018-02-01T12:37:41.262Z,9432
2018-02-01T12:38:42.761Z,12136
2018-02-01T12:39:44.217Z,11172
2018-02-01T12:40:45.637Z,8736
2018-02-01T12:41:47.141Z,5884
2018-02-01T12:42:48.617Z,5188
2018-02-01T12:43:50.149Z,3552
2018-02-01T12:44:51.626Z,3584
2018-02-01T12:45:53.317Z,3520
2018-02-01T12:46:54.901Z,4324
2018-02-01T12:47:56.530Z,3932
2018-02-01T12:49:02.535Z,3264
2018-02-01T12:50:04.258Z,2680
2018-02-01T12:51:05.684Z,2244
2018-02-01T12:52:07.118Z,1804
2018-02-01T12:53:08.543Z,1888
2018-02-01T12:54:10.110Z,1996
2018-02-01T12:55:11.582Z,2420
2018-02-01T12:56:13.088Z,3636
2018-02-01T12:57:14.797Z,3772
2018-02-01T12:58:16.364Z,4068
2018-02-01T12:59:17.798Z,4284
2018-02-01T13:00:19.229Z,4160
2018-02-01T13:01:20.603Z,3456
2018-02-01T13:02:22.037Z,2948
2018-02-01T13:03:23.494Z,2668
2018-02-01T13:04:24.953Z,2692
2018-02-01T13:05:26.441Z,2732
2018-02-01T13:06:27.897Z,2716
2018-02-01T13:07:29.305Z,2992
2018-02-01T13:08:30.823Z,3436
2018-02-01T13:09:32.307Z,3828
2018-02-01T13:10:33.757Z,4624
2018-02-01T13:11:35.197Z,5720
2018-02-01T13:12:36.713Z,6388
2018-02-01T13:13:38.127Z,6660
2018-02-01T13:14:39.596Z,6604
2018-02-01T13:15:41.055Z,5960
2018-02-01T13:16:42.514Z,5260
2018-02-01T13:17:43.918Z,4648
2018-02-01T13:18:45.370Z,4244
2018-02-01T13:19:46.967Z,4024
2018-02-01T13:20:48.380Z,4044
2018-02-01T13:21:49.827Z,4664
2018-02-01T13:22:51.278Z,5400
2018-02-01T13:23:52.707Z,6084
2018-02-01T13:24:54.252Z,6748
2018-02-01T13:25:55.826Z,5768
2018-02-01T13:26:57.256Z,6528
2018-02-01T13:27:58.660Z,5820
2018-02-01T13:29:00.113Z,6196
2018-02-01T13:30:01.686Z,5408
2018-02-01T13:31:03.101Z,5448
2018-02-01T13:32:04.726Z,5284
2018-02-01T13:33:06.168Z,4528
2018-02-01T13:34:07.641Z,4988
2018-02-01T13:35:09.214Z,5548
2018-02-01T13:36:10.824Z,6252
2018-02-01T13:37:12.365Z,7416
2018-02-01T13:38:13.774Z,6896
2018-02-01T13:39:15.161Z,5780
2018-02-01T13:40:16.743Z,4944
2018-02-01T13:41:18.142Z,4268
2018-02-01T13:42:19.595Z,3804
2018-02-01T13:43:21.095Z,3644
2018-02-01T13:44:22.585Z,3628
2018-02-01T13:45:24.033Z,3584
2018-02-01T13:46:25.629Z,3612
2018-02-01T13:47:27.015Z,3976
2018-02-01T13:48:28.458Z,4496
2018-02-01T13:49:29.809Z,5800
2018-02-01T13:50:31.226Z,7076
2018-02-01T13:51:32.669Z,7816
2018-02-01T13:52:34.080Z,7252
2018-02-01T13:53:35.525Z,6904
2018-02-01T13:54:36.925Z,6512
2018-02-01T13:55:38.363Z,6200
2018-02-01T13:56:39.751Z,5680
2018-02-01T13:57:41.211Z,5112
2018-02-01T13:58:42.620Z,5200
2018-02-01T13:59:44.676Z,5652
2018-02-01T14:00:46.119Z,6036
2018-02-01T14:01:47.504Z,6188
2018-02-01T14:02:49.016Z,6676
2018-02-01T14:03:50.481Z,6936
2018-02-01T14:04:51.886Z,7356
2018-02-01T14:05:53.316Z,7732
2018-02-01T14:06:54.825Z,8060
2018-02-01T14:07:56.385Z,8032
2018-02-01T14:08:57.818Z,7580
2018-02-01T14:09:59.223Z,6936
2018-02-01T14:11:00.621Z,6540
2018-02-01T14:12:02.066Z,7272
2018-02-01T14:13:03.769Z,7352
2018-02-01T14:14:05.434Z,6592
2018-02-01T14:15:06.880Z,6232
2018-02-01T14:16:08.706Z,6048
2018-02-01T14:17:10.751Z,5984